createdAt,value
2019-03-18T00:02:11.346Z,3.00
2019-03-18T00:04:39.576Z,3.00
2019-03-18T00:07:07.827Z,3.00
2019-03-18T00:09:36.059Z,3.00
2019-03-18T00:12:04.329Z,2.90
2019-03-18T00:14:32.608Z,2.90
2019-03-18T00:17:00.907Z,2.90
2019-03-18T00:19:29.155Z,3.00
2019-03-18T00:21:57.396Z,2.90
2019-03-18T00:24:25.623Z,2.90
2019-03-18T00:26:53.855Z,2.90
2019-03-18T00:29:22.100Z,2.90
2019-03-18T00:31:50.327Z,2.80
2019-03-18T00:34:18.563Z,2.80
2019-03-18T00:36:46.794Z,2.90
2019-03-18T00:39:15.032Z,2.80
2019-03-18T00:41:43.266Z,2.90
2019-03-18T00:44:11.487Z,2.90
2019-03-18T00:46:39.727Z,2.90
2019-03-18T00:49:07.955Z,2.80
2019-03-18T00:51:36.203Z,2.80
2019-03-18T00:54:04.434Z,2.80
2019-03-18T00:56:32.672Z,2.90
2019-03-18T00:59:00.910Z,2.80
2019-03-18T01:01:29.128Z,2.70
2019-03-18T01:03:57.367Z,2.70
2019-03-18T01:06:25.591Z,2.80
2019-03-18T01:08:53.832Z,2.80
2019-03-18T01:11:22.060Z,2.90
2019-03-18T01:13:50.304Z,2.90
2019-03-18T01:16:18.533Z,2.90
2019-03-18T01:18:46.775Z,2.90
2019-03-18T01:21:15.007Z,2.90
2019-03-18T01:23:43.239Z,2.90
2019-03-18T01:26:11.560Z,2.90
2019-03-18T01:28:39.778Z,2.80
2019-03-18T01:31:08.046Z,2.70
2019-03-18T01:33:36.331Z,2.80
2019-03-18T01:36:04.569Z,2.90
2019-03-18T01:38:32.799Z,2.80
2019-03-18T01:41:01.031Z,2.80
2019-03-18T01:43:29.266Z,2.90
2019-03-18T01:45:57.494Z,2.80
2019-03-18T01:48:25.732Z,2.80
2019-03-18T01:50:53.955Z,2.80
2019-03-18T01:53:22.211Z,2.80
2019-03-18T01:55:50.439Z,2.90
2019-03-18T01:58:18.683Z,2.80
2019-03-18T02:00:46.908Z,2.80
2019-03-18T02:03:15.131Z,2.80
2019-03-18T02:05:43.379Z,2.80
2019-03-18T02:08:11.609Z,2.80
2019-03-18T02:10:39.846Z,2.80
2019-03-18T02:13:08.080Z,2.80
2019-03-18T02:15:36.329Z,2.80
2019-03-18T02:18:04.556Z,2.90
2019-03-18T02:20:32.804Z,2.80
2019-03-18T02:23:01.035Z,2.80
2019-03-18T02:25:29.268Z,2.80
2019-03-18T02:27:57.507Z,2.80
2019-03-18T02:30:25.735Z,2.80
2019-03-18T02:32:53.987Z,2.70
2019-03-18T02:35:22.211Z,2.60
2019-03-18T02:37:50.457Z,2.60
2019-03-18T02:40:18.773Z,2.60
2019-03-18T02:42:46.991Z,2.60
2019-03-18T02:45:15.246Z,2.70
2019-03-18T02:47:43.560Z,2.70
2019-03-18T02:50:11.796Z,2.70
2019-03-18T02:52:40.040Z,2.70
2019-03-18T02:55:08.838Z,2.80
2019-03-18T02:57:37.063Z,2.90
2019-03-18T03:00:13.458Z,2.80
2019-03-18T03:02:41.689Z,2.70
2019-03-18T03:05:11.359Z,2.60
2019-03-18T03:07:39.598Z,2.60
2019-03-18T03:10:10.269Z,2.60
2019-03-18T03:12:38.525Z,2.70
2019-03-18T03:15:12.023Z,2.80
2019-03-18T03:17:40.265Z,2.80
2019-03-18T03:20:10.033Z,2.80
2019-03-18T03:22:38.379Z,2.90
2019-03-18T03:25:10.581Z,2.80
2019-03-18T03:27:38.874Z,2.80
2019-03-18T03:30:14.270Z,2.80
2019-03-18T03:32:42.579Z,2.70
2019-03-18T03:35:10.885Z,2.70
2019-03-18T03:37:39.117Z,2.70
2019-03-18T03:40:09.176Z,2.60
2019-03-18T03:42:37.403Z,2.60
2019-03-18T03:45:10.902Z,2.70
2019-03-18T03:47:39.146Z,2.70
2019-03-18T03:50:10.292Z,2.90
2019-03-18T03:52:38.528Z,2.90
2019-03-18T03:55:09.687Z,2.80
2019-03-18T03:57:38.066Z,2.80
2019-03-18T04:00:16.790Z,2.80
2019-03-18T04:02:45.095Z,2.80
2019-03-18T04:05:13.453Z,2.80
2019-03-18T04:07:41.760Z,2.70
2019-03-18T04:10:14.083Z,2.70
2019-03-18T04:12:42.319Z,2.70
2019-03-18T04:15:11.879Z,2.70
2019-03-18T04:17:40.127Z,2.70
2019-03-18T04:20:11.267Z,2.70
2019-03-18T04:22:39.514Z,2.80
2019-03-18T04:25:08.396Z,2.80
2019-03-18T04:27:36.623Z,2.80
2019-03-18T04:30:12.854Z,2.80
2019-03-18T04:32:41.094Z,2.80
2019-03-18T04:35:09.328Z,2.80
2019-03-18T04:37:37.559Z,2.80
2019-03-18T04:40:07.936Z,2.80
2019-03-18T04:42:36.162Z,2.80
2019-03-18T04:45:06.247Z,2.80
2019-03-18T04:47:34.482Z,2.80
2019-03-18T04:50:02.724Z,2.80
2019-03-18T04:52:30.956Z,2.70
2019-03-18T04:54:59.208Z,2.70
2019-03-18T04:57:27.430Z,2.70
2019-03-18T04:59:55.654Z,2.80
2019-03-18T05:02:23.899Z,2.80
2019-03-18T05:04:52.155Z,2.80
2019-03-18T05:07:20.383Z,2.80
2019-03-18T05:09:48.620Z,2.70
2019-03-18T05:12:16.859Z,2.70
2019-03-18T05:14:45.090Z,2.70
2019-03-18T05:17:25.636Z,2.60
2019-03-18T05:19:43.279Z,2.60
2019-03-18T05:22:11.529Z,2.60
2019-03-18T05:24:39.823Z,2.60
2019-03-18T05:27:08.051Z,2.60
2019-03-18T05:29:36.294Z,2.60
2019-03-18T05:32:05.171Z,2.50
2019-03-18T05:34:33.559Z,2.60
2019-03-18T05:37:01.785Z,2.70
2019-03-18T05:39:30.034Z,2.70
2019-03-18T05:41:58.285Z,2.80
2019-03-18T05:44:26.507Z,2.80
2019-03-18T05:46:54.763Z,2.70
2019-03-18T05:49:23.005Z,2.70
2019-03-18T05:51:51.249Z,2.80
2019-03-18T05:54:19.467Z,2.80
2019-03-18T05:56:47.714Z,2.80
2019-03-18T05:59:15.953Z,2.80
2019-03-18T06:01:44.212Z,2.90
2019-03-18T06:04:12.705Z,2.90
2019-03-18T06:06:40.919Z,2.90
2019-03-18T06:09:09.163Z,2.80
2019-03-18T06:11:37.408Z,2.90
2019-03-18T06:14:05.665Z,3.00
2019-03-18T06:16:33.891Z,3.00
2019-03-18T06:19:02.130Z,3.00
2019-03-18T06:21:30.365Z,3.00
2019-03-18T06:23:58.670Z,3.00
2019-03-18T06:26:26.906Z,3.00
2019-03-18T06:28:55.181Z,3.10
2019-03-18T06:31:23.479Z,3.10
2019-03-18T06:33:51.729Z,3.10
2019-03-18T06:36:19.962Z,3.10
2019-03-18T06:38:48.208Z,3.20
2019-03-18T06:41:16.505Z,3.30
2019-03-18T06:43:44.739Z,3.40
2019-03-18T06:46:12.968Z,3.40
2019-03-18T06:48:41.259Z,3.50
2019-03-18T06:51:09.503Z,3.40
2019-03-18T06:53:40.086Z,3.50
2019-03-18T06:56:07.700Z,3.50
2019-03-18T06:58:35.943Z,3.50
2019-03-18T07:01:04.194Z,3.50
2019-03-18T07:03:32.475Z,3.50
2019-03-18T07:06:00.714Z,3.60
2019-03-18T07:08:28.972Z,3.60
2019-03-18T07:10:57.219Z,3.50
2019-03-18T07:13:25.456Z,3.60
2019-03-18T07:15:53.709Z,3.60
2019-03-18T07:18:21.941Z,3.50
2019-03-18T07:20:50.186Z,3.60
2019-03-18T07:23:18.419Z,3.70
2019-03-18T07:25:46.646Z,3.60
2019-03-18T07:28:14.982Z,3.70
2019-03-18T07:30:43.205Z,3.50
2019-03-18T07:33:11.454Z,3.60
2019-03-18T07:35:39.687Z,3.60
2019-03-18T07:38:07.948Z,3.70
2019-03-18T07:40:36.204Z,3.70
2019-03-18T07:43:04.498Z,3.60
2019-03-18T07:45:32.739Z,3.60
2019-03-18T07:48:00.971Z,3.70
2019-03-18T07:50:29.214Z,3.80
2019-03-18T07:52:57.441Z,3.70
2019-03-18T07:55:25.679Z,4.00
2019-03-18T07:57:53.915Z,3.80
2019-03-18T08:00:22.155Z,4.00
2019-03-18T08:02:50.403Z,4.00
2019-03-18T08:05:18.643Z,3.80
2019-03-18T08:07:46.879Z,3.80
2019-03-18T08:10:15.117Z,3.90
2019-03-18T08:12:43.356Z,3.80
2019-03-18T08:15:12.327Z,3.90
2019-03-18T08:17:40.595Z,4.20
2019-03-18T08:20:10.463Z,4.10
2019-03-18T08:22:38.707Z,4.10
2019-03-18T08:25:08.937Z,4.20
2019-03-18T08:27:37.179Z,4.20
2019-03-18T08:30:12.835Z,4.10
2019-03-18T08:32:41.081Z,4.20
2019-03-18T08:35:09.317Z,4.20
2019-03-18T08:37:37.563Z,4.20
2019-03-18T08:40:08.129Z,4.20
2019-03-18T08:42:36.361Z,4.10
2019-03-18T08:45:07.439Z,4.20
2019-03-18T08:47:35.690Z,4.20
2019-03-18T08:50:06.115Z,4.30
2019-03-18T08:52:34.338Z,4.30
2019-03-18T08:55:02.583Z,4.30
2019-03-18T08:57:30.803Z,4.20
2019-03-18T08:59:59.040Z,4.20
2019-03-18T09:02:27.314Z,4.30
2019-03-18T09:04:55.563Z,4.20
2019-03-18T09:07:23.799Z,4.20
2019-03-18T09:09:52.045Z,4.30
2019-03-18T09:12:20.267Z,4.50
2019-03-18T09:14:48.571Z,4.50
2019-03-18T09:17:16.795Z,4.60
2019-03-18T09:19:45.048Z,4.20
2019-03-18T09:22:13.267Z,4.30
2019-03-18T09:24:41.515Z,4.30
2019-03-18T09:27:09.748Z,4.50
2019-03-18T09:29:37.970Z,4.60
2019-03-18T09:32:06.212Z,4.60
2019-03-18T09:34:34.434Z,4.60
2019-03-18T09:37:02.684Z,4.50
2019-03-18T09:39:30.916Z,4.60
2019-03-18T09:41:59.142Z,4.90
2019-03-18T09:44:27.383Z,4.80
2019-03-18T09:46:55.610Z,5.00
2019-03-18T09:49:23.850Z,5.10
2019-03-18T09:51:52.102Z,5.40
2019-03-18T09:54:20.394Z,5.70
2019-03-18T09:56:48.650Z,5.70
2019-03-18T09:59:16.900Z,5.70
2019-03-18T10:01:45.129Z,5.80
2019-03-18T10:04:13.355Z,5.80
2019-03-18T10:06:41.600Z,5.80
2019-03-18T10:09:09.831Z,5.80
2019-03-18T10:11:38.073Z,5.80
2019-03-18T10:14:06.302Z,5.50
2019-03-18T10:16:34.590Z,5.30
2019-03-18T10:19:02.855Z,5.50
2019-03-18T10:21:31.094Z,5.50
2019-03-18T10:23:59.415Z,5.90
2019-03-18T10:26:27.649Z,6.20
2019-03-18T10:28:55.886Z,6.30
2019-03-18T10:31:24.116Z,6.00
2019-03-18T10:33:52.418Z,5.70
2019-03-18T10:36:20.654Z,5.60
2019-03-18T10:38:48.895Z,5.60
2019-03-18T10:41:17.219Z,6.00
2019-03-18T10:43:45.454Z,6.50
2019-03-18T10:46:13.699Z,6.70
2019-03-18T10:48:41.928Z,6.60
2019-03-18T10:51:10.171Z,6.50
2019-03-18T10:53:38.523Z,6.40
2019-03-18T10:56:08.106Z,6.40
2019-03-18T10:58:36.622Z,5.80
2019-03-18T11:01:04.902Z,5.30
2019-03-18T11:03:33.203Z,5.00
2019-03-18T11:06:01.431Z,5.00
2019-03-18T11:08:29.747Z,5.10
2019-03-18T11:10:58.099Z,5.30
2019-03-18T11:13:26.346Z,5.30
2019-03-18T11:15:56.202Z,5.40
2019-03-18T11:18:24.447Z,5.30
2019-03-18T11:20:52.678Z,5.20
2019-03-18T11:23:20.914Z,5.10
2019-03-18T11:25:49.179Z,5.20
2019-03-18T11:28:17.409Z,5.50
2019-03-18T11:30:45.678Z,5.50
2019-03-18T11:33:13.950Z,5.60
2019-03-18T11:35:42.186Z,5.90
2019-03-18T11:38:10.505Z,5.80
2019-03-18T11:40:38.746Z,5.80
2019-03-18T11:43:06.992Z,5.70
2019-03-18T11:45:35.217Z,5.70
2019-03-18T11:48:03.553Z,5.60
2019-03-18T11:50:32.019Z,5.80
2019-03-18T11:53:00.432Z,5.80
2019-03-18T11:55:28.663Z,5.80
2019-03-18T11:57:56.906Z,6.00
2019-03-18T12:00:26.069Z,6.00
2019-03-18T12:02:54.408Z,5.90
2019-03-18T12:05:24.872Z,5.70
2019-03-18T12:07:53.103Z,5.50
2019-03-18T12:10:21.525Z,5.30
2019-03-18T12:12:49.754Z,5.30
2019-03-18T12:15:22.187Z,5.30
2019-03-18T12:17:50.430Z,5.30
2019-03-18T12:20:24.742Z,5.10
2019-03-18T12:22:48.621Z,5.30
2019-03-18T12:25:16.858Z,5.60
2019-03-18T12:27:45.095Z,6.00
2019-03-18T12:30:21.748Z,6.30
2019-03-18T12:32:49.979Z,6.70
2019-03-18T12:35:18.248Z,6.50
2019-03-18T12:37:46.539Z,6.50
2019-03-18T12:40:15.769Z,6.50
2019-03-18T12:42:44.192Z,6.50
2019-03-18T12:45:16.206Z,6.20
2019-03-18T12:47:44.529Z,6.20
2019-03-18T12:50:15.639Z,6.30
2019-03-18T12:52:43.881Z,6.30
2019-03-18T12:55:12.282Z,6.50
2019-03-18T12:57:40.516Z,6.50
2019-03-18T13:00:15.930Z,6.40
2019-03-18T13:02:44.253Z,6.30
2019-03-18T13:05:12.492Z,6.30
2019-03-18T13:07:40.736Z,6.30
2019-03-18T13:10:14.248Z,6.20
2019-03-18T13:12:42.479Z,6.20
2019-03-18T13:15:15.283Z,6.00
2019-03-18T13:17:43.949Z,6.20
2019-03-18T13:20:14.532Z,6.30
2019-03-18T13:22:42.755Z,6.40
2019-03-18T13:25:14.315Z,6.40
2019-03-18T13:27:42.539Z,6.30
2019-03-18T13:30:19.927Z,6.20
2019-03-18T13:32:48.235Z,6.20
2019-03-18T13:35:16.487Z,6.20
2019-03-18T13:37:44.710Z,6.20
2019-03-18T13:40:17.758Z,6.30
2019-03-18T13:42:45.974Z,6.40
2019-03-18T13:45:21.430Z,6.50
2019-03-18T13:47:49.671Z,6.80
2019-03-18T13:50:18.910Z,6.80
2019-03-18T13:52:47.158Z,6.70
2019-03-18T13:55:15.386Z,6.90
2019-03-18T13:57:43.651Z,7.10
2019-03-18T14:00:21.709Z,7.60
2019-03-18T14:02:49.948Z,9.10
2019-03-18T14:05:18.214Z,9.90
2019-03-18T14:07:58.924Z,10.40
2019-03-18T14:10:18.893Z,11.10
2019-03-18T14:12:47.146Z,11.70
2019-03-18T14:15:19.778Z,12.50
2019-03-18T14:17:48.038Z,12.50
2019-03-18T14:20:29.355Z,11.50
2019-03-18T14:22:57.717Z,9.50
2019-03-18T14:25:25.956Z,8.30
2019-03-18T14:27:54.191Z,8.10
2019-03-18T14:30:25.365Z,8.00
2019-03-18T14:32:53.612Z,8.80
2019-03-18T14:35:22.166Z,9.40
2019-03-18T14:37:50.561Z,10.10
2019-03-18T14:40:25.498Z,10.80
2019-03-18T14:42:53.726Z,12.30
2019-03-18T14:45:25.521Z,12.00
2019-03-18T14:47:53.841Z,11.40
2019-03-18T14:50:22.097Z,10.80
2019-03-18T14:52:50.336Z,9.60
2019-03-18T14:55:18.923Z,9.00
2019-03-18T14:57:47.146Z,9.30
2019-03-18T15:00:22.113Z,9.10
2019-03-18T15:02:50.340Z,8.80
2019-03-18T15:05:18.717Z,8.50
2019-03-18T15:07:46.981Z,8.00
2019-03-18T15:10:16.951Z,7.30
2019-03-18T15:12:45.195Z,7.50
2019-03-18T15:15:17.315Z,7.20
2019-03-18T15:17:45.564Z,7.10
2019-03-18T15:20:22.193Z,7.00
2019-03-18T15:22:50.435Z,7.10
2019-03-18T15:25:24.597Z,6.90
2019-03-18T15:27:52.836Z,6.80
2019-03-18T15:30:21.063Z,6.60
2019-03-18T15:32:49.309Z,6.40
2019-03-18T15:35:17.877Z,6.40
2019-03-18T15:37:46.113Z,6.10
2019-03-18T15:40:22.908Z,5.80
2019-03-18T15:42:51.145Z,5.20
2019-03-18T15:45:20.619Z,4.70
2019-03-18T15:47:48.959Z,4.70
2019-03-18T15:50:18.666Z,4.80
2019-03-18T15:52:47.744Z,5.00
2019-03-18T15:55:15.982Z,5.60
2019-03-18T15:57:44.215Z,5.50
2019-03-18T16:00:23.869Z,5.40
2019-03-18T16:02:52.100Z,5.30
2019-03-18T16:05:20.357Z,6.40
2019-03-18T16:07:50.271Z,7.00
2019-03-18T16:10:19.847Z,7.70
2019-03-18T16:12:48.088Z,8.80
2019-03-18T16:15:17.262Z,9.40
2019-03-18T16:17:45.515Z,9.50
2019-03-18T16:20:21.906Z,9.30
2019-03-18T16:22:50.150Z,8.40
2019-03-18T16:25:18.392Z,8.00
2019-03-18T16:27:46.618Z,7.90
2019-03-18T16:30:18.111Z,7.40
2019-03-18T16:32:46.358Z,6.30
2019-03-18T16:35:16.199Z,5.80
2019-03-18T16:37:44.639Z,5.50
2019-03-18T16:40:16.142Z,5.00
2019-03-18T16:42:44.371Z,4.70
2019-03-18T16:45:15.120Z,4.30
2019-03-18T16:47:43.360Z,4.30
2019-03-18T16:50:23.690Z,4.50
2019-03-18T16:52:51.912Z,4.60
2019-03-18T16:55:20.143Z,5.10
2019-03-18T16:57:48.388Z,5.50
2019-03-18T17:00:23.858Z,5.80
2019-03-18T17:02:52.090Z,5.60
2019-03-18T17:05:20.320Z,5.20
2019-03-18T17:07:48.598Z,5.10
2019-03-18T17:10:16.967Z,5.10
2019-03-18T17:12:45.205Z,5.10
2019-03-18T17:15:21.113Z,4.90
2019-03-18T17:17:49.383Z,4.60
2019-03-18T17:20:17.684Z,4.20
2019-03-18T17:22:49.346Z,4.20
2019-03-18T17:25:24.497Z,4.10
2019-03-18T17:27:52.717Z,4.00
2019-03-18T17:30:21.233Z,3.80
2019-03-18T17:32:49.475Z,3.70
2019-03-18T17:35:17.716Z,3.60
2019-03-18T17:37:46.053Z,3.60
2019-03-18T17:40:15.728Z,3.50
2019-03-18T17:42:43.961Z,3.50
2019-03-18T17:45:15.855Z,3.50
2019-03-18T17:47:44.091Z,3.50
2019-03-18T17:50:21.009Z,3.30
2019-03-18T17:53:01.735Z,3.40
2019-03-18T17:55:19.293Z,3.30
2019-03-18T17:57:47.517Z,3.20
2019-03-18T18:00:18.331Z,3.20
2019-03-18T18:02:46.575Z,3.20
2019-03-18T18:05:14.819Z,3.20
2019-03-18T18:07:43.156Z,3.10
2019-03-18T18:10:11.767Z,3.10
2019-03-18T18:12:40.007Z,3.00
2019-03-18T18:15:09.872Z,3.00
2019-03-18T18:17:38.109Z,3.00
2019-03-18T18:20:12.555Z,2.90
2019-03-18T18:22:41.255Z,2.80
2019-03-18T18:25:12.024Z,2.70
2019-03-18T18:27:40.264Z,2.70
2019-03-18T18:30:19.235Z,2.70
2019-03-18T18:32:47.661Z,2.70
2019-03-18T18:35:15.903Z,2.70
2019-03-18T18:37:44.129Z,2.70
2019-03-18T18:40:14.306Z,2.70
2019-03-18T18:42:42.554Z,2.70
2019-03-18T18:45:12.331Z,2.70
2019-03-18T18:47:40.572Z,2.70
2019-03-18T18:50:10.381Z,2.80
2019-03-18T18:52:38.751Z,2.80
2019-03-18T18:55:13.761Z,2.80
2019-03-18T18:57:42.139Z,2.70
2019-03-18T19:00:18.532Z,2.70
2019-03-18T19:02:46.803Z,2.60
2019-03-18T19:05:18.570Z,2.70
2019-03-18T19:07:46.916Z,2.60
2019-03-18T19:10:21.326Z,2.60
2019-03-18T19:12:49.788Z,2.60
2019-03-18T19:15:23.610Z,2.50
2019-03-18T19:17:52.120Z,2.50
2019-03-18T19:20:20.578Z,2.50
2019-03-18T19:22:49.343Z,2.60
2019-03-18T19:25:18.670Z,2.60
2019-03-18T19:27:47.840Z,2.70
2019-03-18T19:30:20.800Z,2.60
2019-03-18T19:32:50.033Z,2.60
2019-03-18T19:35:19.110Z,2.50
2019-03-18T19:37:48.214Z,2.50
2019-03-18T19:40:24.008Z,2.40
2019-03-18T19:42:54.089Z,2.40
2019-03-18T19:45:23.744Z,2.30
2019-03-18T19:47:53.695Z,2.20
2019-03-18T19:50:28.561Z,2.10
2019-03-18T19:52:58.254Z,2.00
2019-03-18T19:55:27.927Z,2.00
2019-03-18T19:57:57.614Z,2.00
2019-03-18T20:00:28.512Z,2.00
2019-03-18T20:02:58.141Z,2.10
2019-03-18T20:05:28.051Z,2.20
2019-03-18T20:07:57.551Z,2.30
2019-03-18T20:10:27.625Z,2.30
2019-03-18T20:15:48.578Z,2.40
2019-03-18T20:18:18.636Z,2.50
2019-03-18T20:20:48.415Z,2.60
2019-03-18T20:23:18.357Z,2.50
2019-03-18T20:25:48.301Z,2.60
2019-03-18T20:28:18.524Z,2.50
2019-03-18T20:30:48.243Z,2.60
2019-03-18T20:33:18.083Z,2.80
2019-03-18T20:35:47.700Z,2.80
2019-03-18T20:38:17.413Z,2.80
2019-03-18T20:40:47.248Z,2.90
2019-03-18T20:43:16.933Z,2.90
2019-03-18T20:45:46.854Z,2.90
2019-03-18T20:48:16.897Z,2.90
2019-03-18T20:50:46.881Z,2.90
2019-03-18T20:53:16.868Z,2.90
2019-03-18T20:55:46.572Z,3.10
2019-03-18T20:58:16.591Z,3.00
2019-03-18T21:00:46.394Z,2.90
2019-03-18T21:03:16.453Z,2.90
2019-03-18T21:05:46.408Z,2.90
2019-03-18T21:08:16.444Z,2.80
2019-03-18T21:10:45.757Z,2.90
2019-03-18T21:13:16.962Z,2.90
2019-03-18T21:16:05.957Z,2.90
2019-03-18T21:18:36.052Z,2.90
2019-03-18T21:21:04.450Z,2.90
2019-03-18T21:23:32.976Z,3.00
2019-03-18T21:26:01.448Z,3.10
2019-03-18T21:28:40.493Z,3.10
2019-03-18T21:31:00.071Z,3.10
2019-03-18T21:33:28.357Z,2.90
2019-03-18T21:35:56.658Z,2.80
2019-03-18T21:38:25.099Z,2.80
2019-03-18T21:40:53.462Z,2.80
2019-03-18T21:43:21.795Z,2.70
2019-03-18T21:45:50.296Z,2.60
2019-03-18T21:48:18.552Z,2.50
2019-03-18T21:50:46.812Z,2.60
2019-03-18T21:53:15.054Z,2.50
2019-03-18T21:55:43.300Z,2.50
2019-03-18T21:58:11.535Z,2.50
2019-03-18T22:00:39.787Z,2.40
2019-03-18T22:03:08.019Z,2.50
2019-03-18T22:05:36.264Z,2.40
2019-03-18T22:08:04.499Z,2.50
2019-03-18T22:10:32.755Z,2.50
2019-03-18T22:13:00.985Z,2.60
2019-03-18T22:15:29.232Z,2.40
2019-03-18T22:17:57.460Z,2.30
2019-03-18T22:20:25.715Z,2.30
2019-03-18T22:22:54.006Z,2.20
2019-03-18T22:25:22.234Z,2.20
2019-03-18T22:27:50.488Z,2.10
2019-03-18T22:30:18.997Z,2.10
2019-03-18T22:32:47.601Z,2.10
2019-03-18T22:35:15.835Z,2.10
2019-03-18T22:37:44.073Z,2.10
2019-03-18T22:40:17.302Z,2.10
2019-03-18T22:42:45.555Z,2.10
2019-03-18T22:45:14.715Z,2.00
2019-03-18T22:47:42.965Z,2.00
2019-03-18T22:50:12.134Z,2.00
2019-03-18T22:52:40.396Z,2.00
2019-03-18T22:55:11.219Z,1.90
2019-03-18T22:57:39.473Z,1.90
2019-03-18T23:00:17.728Z,1.90
2019-03-18T23:02:45.976Z,1.80
2019-03-18T23:05:14.671Z,1.80
2019-03-18T23:07:42.919Z,1.90
2019-03-18T23:10:11.154Z,1.80
2019-03-18T23:12:39.450Z,1.80
2019-03-18T23:15:08.658Z,1.80
2019-03-18T23:17:36.973Z,1.80
2019-03-18T23:20:06.056Z,1.90
2019-03-18T23:22:34.290Z,1.90
2019-03-18T23:25:06.924Z,1.80
2019-03-18T23:27:32.667Z,1.80
2019-03-18T23:30:00.911Z,1.80
2019-03-18T23:32:29.147Z,1.70
2019-03-18T23:34:57.383Z,1.60
2019-03-18T23:37:25.632Z,1.50
2019-03-18T23:39:53.873Z,1.50
2019-03-18T23:42:22.113Z,1.50
2019-03-18T23:44:50.335Z,1.50
2019-03-18T23:47:18.579Z,1.50
2019-03-18T23:49:47.648Z,1.50
2019-03-18T23:52:16.019Z,1.40
2019-03-18T23:54:44.287Z,1.40
2019-03-18T23:57:12.506Z,1.40
2019-03-18T23:59:40.759Z,1.30
